createdAt,value
2018-12-26T00:01:39.011Z,19.30
2018-12-26T00:46:39.073Z,17.73
2018-12-26T00:49:26.976Z,18.90
2018-12-26T00:52:14.999Z,18.13
2018-12-26T00:55:02.932Z,17.63
2018-12-26T00:57:50.829Z,19.03
2018-12-26T01:00:38.702Z,18.47
2018-12-26T01:03:26.933Z,19.27
2018-12-26T01:18:17.508Z,17.70
2018-12-26T01:20:46.174Z,18.13
2018-12-26T01:23:15.690Z,18.83
2018-12-26T01:26:03.616Z,17.30
2018-12-26T01:28:51.588Z,17.73
2018-12-26T01:31:39.831Z,18.23
2018-12-26T01:34:27.727Z,18.40
2018-12-26T01:37:15.662Z,17.20
2018-12-26T01:39:44.483Z,17.47
2018-12-26T01:42:32.525Z,19.07
2018-12-26T01:45:20.508Z,16.37
2018-12-26T01:50:43.289Z,16.20
2018-12-26T01:56:29.042Z,16.13
2018-12-26T01:58:57.774Z,15.90
2018-12-26T02:01:26.393Z,16.57
2018-12-26T02:03:55.478Z,17.73
2018-12-26T02:06:24.168Z,16.50
2018-12-26T02:08:55.634Z,16.33
2018-12-26T02:11:24.683Z,16.23
2018-12-26T02:14:12.624Z,15.97
2018-12-26T02:17:19.524Z,16.60
2018-12-26T02:19:48.194Z,17.00
2018-12-26T02:22:16.816Z,17.27
2018-12-26T02:24:45.852Z,17.07
2018-12-26T02:27:14.434Z,16.83
2018-12-26T02:29:43.154Z,16.77
2018-12-26T02:32:11.768Z,17.20
2018-12-26T02:34:59.565Z,16.47
2018-12-26T02:37:28.436Z,16.73
2018-12-26T02:40:16.221Z,16.77
2018-12-26T02:43:05.902Z,17.13
2018-12-26T02:45:53.810Z,17.70
2018-12-26T02:48:42.588Z,17.37
2018-12-26T02:51:33.763Z,17.27
2018-12-26T02:57:25.084Z,17.30
2018-12-26T03:00:13.077Z,16.77
2018-12-26T03:03:00.969Z,17.47
2018-12-26T03:17:51.647Z,17.13
2018-12-26T03:20:39.689Z,17.87
2018-12-26T03:28:59.436Z,18.43
2018-12-26T03:31:47.176Z,18.50
2018-12-26T03:34:35.302Z,18.47
2018-12-26T03:37:23.160Z,18.37
2018-12-26T03:40:11.094Z,17.73
2018-12-26T03:42:59.179Z,19.03
2018-12-26T03:48:40.786Z,19.93
2018-12-26T03:51:29.749Z,18.43
2018-12-26T03:54:17.645Z,18.23
2018-12-26T03:57:06.654Z,18.87
2018-12-26T03:59:55.452Z,18.73
2018-12-26T04:02:43.410Z,19.33
2018-12-26T04:05:31.217Z,19.67
2018-12-26T04:54:17.248Z,20.67
2018-12-26T04:59:58.621Z,22.73
2018-12-26T05:05:37.659Z,22.33
2018-12-26T05:42:19.399Z,22.57
2018-12-26T05:54:09.138Z,22.80
2018-12-26T05:56:57.327Z,23.67
2018-12-26T06:02:38.777Z,24.20
2018-12-26T06:05:29.595Z,23.97
2018-12-26T06:38:25.018Z,25.80
2018-12-26T06:41:12.896Z,25.20
2018-12-26T06:44:01.136Z,25.17
2018-12-26T06:46:31.528Z,26.80
2018-12-26T06:49:19.373Z,26.10
2018-12-26T06:52:07.355Z,26.37
2018-12-26T06:55:14.543Z,24.47
2018-12-26T06:58:02.463Z,24.40
2018-12-26T07:00:50.434Z,25.23
2018-12-26T07:03:19.101Z,25.40
2018-12-26T07:06:07.399Z,23.43
2018-12-26T07:18:04.273Z,25.10
2018-12-26T07:26:58.631Z,26.30
2018-12-26T07:29:46.388Z,24.87
2018-12-26T07:32:34.254Z,24.63
2018-12-26T07:35:22.264Z,24.73
2018-12-26T07:38:10.317Z,25.73
2018-12-26T07:40:58.368Z,25.30
2018-12-26T07:43:46.154Z,24.63
2018-12-26T07:46:34.030Z,25.00
2018-12-26T07:49:21.991Z,25.27
2018-12-26T07:52:09.833Z,25.53
2018-12-26T07:54:57.779Z,24.17
2018-12-26T07:57:45.813Z,25.50
2018-12-26T08:00:33.554Z,25.37
2018-12-26T08:03:21.379Z,24.23
2018-12-26T08:06:09.456Z,24.10
2018-12-26T08:08:57.356Z,25.37
2018-12-26T08:32:50.450Z,24.83
2018-12-26T08:35:38.356Z,26.17
2018-12-26T08:38:26.228Z,26.07
2018-12-26T08:41:14.111Z,25.83
2018-12-26T08:44:01.948Z,24.03
2018-12-26T08:46:49.904Z,24.07
2018-12-26T08:49:37.851Z,24.97
2018-12-26T09:12:54.318Z,24.53
2018-12-26T09:15:47.800Z,25.30
2018-12-26T09:34:06.739Z,24.17
2018-12-26T09:36:54.726Z,24.23
2018-12-26T09:39:42.612Z,24.63
2018-12-26T09:42:30.600Z,24.80
2018-12-26T09:45:18.521Z,23.93
2018-12-26T09:48:14.200Z,23.97
2018-12-26T09:51:02.067Z,22.00
2018-12-26T09:53:50.844Z,22.03
2018-12-26T09:56:39.239Z,23.10
2018-12-26T09:59:27.233Z,22.10
2018-12-26T10:05:33.984Z,23.63
2018-12-26T10:08:22.390Z,21.63
2018-12-26T11:36:53.486Z,20.67
2018-12-26T11:39:41.415Z,21.13
2018-12-26T11:42:29.251Z,21.23
2018-12-26T11:44:57.773Z,21.03
2018-12-26T11:47:45.612Z,20.60
2018-12-26T11:50:33.605Z,19.77
2018-12-26T11:53:21.382Z,20.67
2018-12-26T11:56:09.050Z,21.07
2018-12-26T11:58:37.747Z,22.40
2018-12-26T12:01:25.901Z,21.53
2018-12-26T12:04:13.794Z,20.07
2018-12-26T12:07:01.644Z,21.10
2018-12-26T12:09:30.197Z,20.83
2018-12-26T12:12:18.126Z,20.73
2018-12-26T12:15:06.056Z,20.87
2018-12-26T12:17:34.677Z,21.10
2018-12-26T12:20:22.536Z,21.80
2018-12-26T12:23:10.384Z,21.20
2018-12-26T12:25:58.247Z,22.27
2018-12-26T12:28:46.052Z,20.57
2018-12-26T12:31:33.879Z,21.03
2018-12-26T12:34:21.653Z,20.60
2018-12-26T12:37:09.926Z,21.97
2018-12-26T12:39:38.477Z,21.57
2018-12-26T12:42:26.389Z,20.50
2018-12-26T12:45:14.270Z,20.13
2018-12-26T12:48:02.142Z,21.43
2018-12-26T12:51:05.649Z,20.23
2018-12-26T12:53:21.804Z,20.67
2018-12-26T12:56:12.177Z,21.80
2018-12-26T12:59:01.232Z,20.47
2018-12-26T13:01:49.027Z,20.33
2018-12-26T13:04:36.853Z,20.83
2018-12-26T13:07:24.903Z,21.73
2018-12-26T13:28:11.306Z,21.77
2018-12-26T13:31:05.034Z,23.97
2018-12-26T13:33:48.674Z,22.23
2018-12-26T13:36:36.524Z,22.77
2018-12-26T13:39:24.344Z,22.90
2018-12-26T13:45:08.420Z,23.70
2018-12-26T13:47:37.087Z,23.67
2018-12-26T13:53:22.470Z,23.37
2018-12-26T13:56:10.706Z,23.70
2018-12-26T13:58:58.546Z,23.57
2018-12-26T14:01:46.394Z,24.13
2018-12-26T14:04:34.361Z,22.50
2018-12-26T14:07:22.134Z,23.30
2018-12-26T14:19:02.296Z,22.67
2018-12-26T14:24:41.397Z,21.93
2018-12-26T14:33:37.872Z,23.17
2018-12-26T14:45:18.638Z,24.50
2018-12-26T14:48:07.996Z,24.07
2018-12-26T14:50:59.176Z,24.90
2018-12-26T14:56:54.185Z,23.93
2018-12-26T14:59:42.020Z,23.10
2018-12-26T15:05:31.204Z,24.83
2018-12-26T15:08:19.064Z,25.37
2018-12-26T15:10:48.949Z,23.20
2018-12-26T15:14:11.003Z,23.70
2018-12-26T15:16:46.922Z,24.60
2018-12-26T15:19:35.448Z,23.10
2018-12-26T15:22:23.418Z,23.30
2018-12-26T15:25:16.045Z,22.73
2018-12-26T15:28:04.007Z,23.23
2018-12-26T15:30:52.029Z,23.67
2018-12-26T15:33:39.865Z,22.80
2018-12-26T15:36:27.781Z,23.33
2018-12-26T15:39:15.514Z,22.67
2018-12-26T15:42:05.055Z,24.37
2018-12-26T15:44:55.368Z,24.10
2018-12-26T15:47:43.351Z,24.23
2018-12-26T15:50:55.227Z,24.77
2018-12-26T15:56:51.669Z,25.30
2018-12-26T16:02:30.794Z,24.67
2018-12-26T16:05:18.654Z,24.50
2018-12-26T16:08:06.568Z,24.80
2018-12-26T16:38:17.257Z,22.57
2018-12-26T16:41:04.997Z,24.03
2018-12-26T16:43:52.775Z,22.70
2018-12-26T16:46:40.548Z,22.97
2018-12-26T16:49:42.681Z,22.03
2018-12-26T16:52:18.300Z,23.37
2018-12-26T16:55:06.252Z,24.23
2018-12-26T16:57:55.925Z,22.23
2018-12-26T17:00:24.521Z,23.30
2018-12-26T17:02:53.209Z,23.20
2018-12-26T17:05:21.843Z,22.53
2018-12-26T17:07:53.039Z,22.90
2018-12-26T17:31:55.045Z,23.43
2018-12-26T17:34:42.759Z,22.33
2018-12-26T17:40:24.328Z,21.67
2018-12-26T17:43:14.317Z,23.37
2018-12-26T17:46:02.150Z,22.47
2018-12-26T17:51:43.734Z,24.30
2018-12-26T17:54:31.569Z,23.40
2018-12-26T17:57:19.259Z,24.07
2018-12-26T18:00:07.007Z,23.77
2018-12-26T18:02:57.305Z,23.70
2018-12-26T18:05:45.222Z,24.53
2018-12-26T18:08:46.622Z,23.93
2018-12-26T18:41:18.244Z,21.43
2018-12-26T18:49:37.778Z,21.80
2018-12-26T18:52:25.673Z,22.73
2018-12-26T18:55:13.839Z,23.30
2018-12-26T18:58:01.742Z,22.70
2018-12-26T19:00:52.928Z,21.53
2018-12-26T19:03:40.961Z,22.97
2018-12-26T19:06:29.186Z,23.07
2018-12-26T19:09:17.150Z,22.30
2018-12-26T20:03:34.418Z,23.93
2018-12-26T20:12:34.893Z,24.27
2018-12-26T20:15:29.707Z,24.73
2018-12-26T20:18:01.830Z,24.93
2018-12-26T20:23:14.414Z,24.73
2018-12-26T20:25:44.202Z,26.23
2018-12-26T20:28:26.318Z,25.67
2018-12-26T20:36:38.075Z,24.63
2018-12-26T20:39:26.599Z,24.43
2018-12-26T20:42:14.532Z,26.77
2018-12-26T20:44:43.234Z,26.30
2018-12-26T20:47:31.155Z,27.00
2018-12-26T20:50:19.074Z,25.37
2018-12-26T20:53:07.152Z,26.57
2018-12-26T20:55:55.084Z,25.90
2018-12-26T20:58:42.977Z,27.60
2018-12-26T21:01:30.952Z,26.40
2018-12-26T21:04:18.867Z,26.03
2018-12-26T21:07:06.755Z,25.53
2018-12-26T21:10:08.728Z,26.70
2018-12-26T21:18:32.514Z,26.77
2018-12-26T21:21:01.182Z,25.83
2018-12-26T21:23:29.903Z,26.03
2018-12-26T21:25:58.691Z,27.53
2018-12-26T21:28:27.279Z,27.73
2018-12-26T21:31:15.172Z,26.87
2018-12-26T21:33:43.904Z,28.13
2018-12-26T21:36:31.767Z,28.37
2018-12-26T21:39:19.722Z,28.17
2018-12-26T21:41:48.909Z,26.33
2018-12-26T21:47:13.693Z,25.23
2018-12-26T21:49:42.689Z,25.50
2018-12-26T21:52:13.208Z,26.90
2018-12-26T21:55:16.041Z,27.87
2018-12-26T22:00:42.066Z,24.70
2018-12-26T22:03:10.713Z,25.03
2018-12-26T22:05:58.601Z,24.90
2018-12-26T22:08:46.481Z,25.40
2018-12-26T23:13:01.599Z,25.27
2018-12-26T23:15:42.347Z,24.93
2018-12-26T23:18:23.006Z,24.70
2018-12-26T23:21:03.473Z,25.27
2018-12-26T23:23:44.140Z,24.70
2018-12-26T23:29:13.246Z,25.57
2018-12-26T23:31:54.874Z,24.53
2018-12-26T23:34:36.111Z,24.63
2018-12-26T23:37:16.541Z,25.13
2018-12-26T23:39:57.009Z,24.47
2018-12-26T23:42:37.113Z,24.03
2018-12-26T23:45:17.769Z,25.60
2018-12-26T23:47:58.022Z,24.00
2018-12-26T23:50:38.385Z,24.73
2018-12-26T23:53:18.703Z,23.23
2018-12-26T23:55:59.293Z,25.33
2018-12-26T23:58:39.380Z,25.30
